sensor_id;sensor_type;location;lat;lon;timestamp;P1;durP1;ratioP1;P2;durP2;ratioP2
11548;SDS011;61444;59.472;18.306;2022-10-15T00:01:04;12.73;;;8.57;;
11548;SDS011;61444;59.472;18.306;2022-10-15T00:03:13;12.53;;;8.57;;
11548;SDS011;61444;59.472;18.306;2022-10-15T00:05:24;12.47;;;8.77;;
11548;SDS011;61444;59.472;18.306;2022-10-15T00:07:33;14.77;;;9.10;;
11548;SDS011;61444;59.472;18.306;2022-10-15T00:09:42;17.07;;;8.63;;
11548;SDS011;61444;59.472;18.306;2022-10-15T00:11:51;14.87;;;8.47;;
11548;SDS011;61444;59.472;18.306;2022-10-15T00:14:00;12.73;;;9.17;;
11548;SDS011;61444;59.472;18.306;2022-10-15T00:16:11;12.43;;;9.00;;
11548;SDS011;61444;59.472;18.306;2022-10-15T00:18:20;14.40;;;9.00;;
11548;SDS011;61444;59.472;18.306;2022-10-15T00:20:41;14.03;;;9.33;;
11548;SDS011;61444;59.472;18.306;2022-10-15T00:22:50;12.63;;;9.17;;
11548;SDS011;61444;59.472;18.306;2022-10-15T00:24:59;15.13;;;8.83;;
11548;SDS011;61444;59.472;18.306;2022-10-15T00:27:08;13.93;;;9.30;;
11548;SDS011;61444;59.472;18.306;2022-10-15T00:29:17;14.67;;;8.87;;
11548;SDS011;61444;59.472;18.306;2022-10-15T00:31:27;14.13;;;9.00;;
11548;SDS011;61444;59.472;18.306;2022-10-15T00:33:36;11.80;;;7.90;;
11548;SDS011;61444;59.472;18.306;2022-10-15T00:35:47;10.17;;;7.43;;
11548;SDS011;61444;59.472;18.306;2022-10-15T00:38:05;12.87;;;8.00;;
11548;SDS011;61444;59.472;18.306;2022-10-15T00:40:13;10.13;;;7.73;;
11548;SDS011;61444;59.472;18.306;2022-10-15T00:42:22;13.07;;;7.90;;
11548;SDS011;61444;59.472;18.306;2022-10-15T00:44:48;11.63;;;8.10;;
11548;SDS011;61444;59.472;18.306;2022-10-15T00:47:00;14.47;;;9.20;;
11548;SDS011;61444;59.472;18.306;2022-10-15T00:49:13;11.07;;;8.60;;
11548;SDS011;61444;59.472;18.306;2022-10-15T00:51:26;11.77;;;7.87;;
11548;SDS011;61444;59.472;18.306;2022-10-15T00:53:37;12.03;;;8.80;;
11548;SDS011;61444;59.472;18.306;2022-10-15T00:55:47;14.00;;;8.70;;
11548;SDS011;61444;59.472;18.306;2022-10-15T00:57:57;14.77;;;8.40;;
11548;SDS011;61444;59.472;18.306;2022-10-15T01:00:07;12.47;;;8.93;;
11548;SDS011;61444;59.472;18.306;2022-10-15T01:02:17;15.27;;;8.70;;
11548;SDS011;61444;59.472;18.306;2022-10-15T01:04:26;14.90;;;8.77;;
11548;SDS011;61444;59.472;18.306;2022-10-15T01:06:37;14.67;;;8.87;;
11548;SDS011;61444;59.472;18.306;2022-10-15T01:08:48;14.40;;;8.70;;
11548;SDS011;61444;59.472;18.306;2022-10-15T01:11:00;12.67;;;8.53;;
11548;SDS011;61444;59.472;18.306;2022-10-15T01:13:13;12.10;;;8.33;;
11548;SDS011;61444;59.472;18.306;2022-10-15T01:15:28;12.80;;;7.87;;
11548;SDS011;61444;59.472;18.306;2022-10-15T01:17:43;10.70;;;7.83;;
11548;SDS011;61444;59.472;18.306;2022-10-15T01:20:04;12.70;;;8.43;;
11548;SDS011;61444;59.472;18.306;2022-10-15T01:22:20;11.53;;;7.70;;
11548;SDS011;61444;59.472;18.306;2022-10-15T01:27:19;12.60;;;7.10;;
11548;SDS011;61444;59.472;18.306;2022-10-15T01:29:34;10.97;;;7.07;;
11548;SDS011;61444;59.472;18.306;2022-10-15T01:31:51;11.17;;;7.60;;
11548;SDS011;61444;59.472;18.306;2022-10-15T01:34:05;13.07;;;7.83;;
11548;SDS011;61444;59.472;18.306;2022-10-15T01:36:26;13.57;;;8.17;;
11548;SDS011;61444;59.472;18.306;2022-10-15T01:38:43;12.97;;;8.07;;
11548;SDS011;61444;59.472;18.306;2022-10-15T01:40:54;11.97;;;7.00;;
11548;SDS011;61444;59.472;18.306;2022-10-15T01:43:06;12.87;;;7.37;;
11548;SDS011;61444;59.472;18.306;2022-10-15T01:45:18;10.60;;;7.50;;
11548;SDS011;61444;59.472;18.306;2022-10-15T01:47:33;14.20;;;7.07;;
11548;SDS011;61444;59.472;18.306;2022-10-15T01:49:43;11.17;;;7.03;;
11548;SDS011;61444;59.472;18.306;2022-10-15T01:51:53;9.77;;;6.03;;
11548;SDS011;61444;59.472;18.306;2022-10-15T01:54:03;9.47;;;6.20;;
11548;SDS011;61444;59.472;18.306;2022-10-15T01:56:13;10.63;;;5.73;;
11548;SDS011;61444;59.472;18.306;2022-10-15T01:58:23;10.87;;;6.23;;
11548;SDS011;61444;59.472;18.306;2022-10-15T02:00:32;8.60;;;5.97;;
11548;SDS011;61444;59.472;18.306;2022-10-15T02:02:43;11.40;;;5.70;;
11548;SDS011;61444;59.472;18.306;2022-10-15T02:04:52;9.13;;;6.37;;
11548;SDS011;61444;59.472;18.306;2022-10-15T02:07:02;11.10;;;5.97;;
11548;SDS011;61444;59.472;18.306;2022-10-15T02:09:13;9.63;;;5.67;;
11548;SDS011;61444;59.472;18.306;2022-10-15T02:11:24;8.27;;;5.77;;
11548;SDS011;61444;59.472;18.306;2022-10-15T02:13:36;6.97;;;5.13;;
11548;SDS011;61444;59.472;18.306;2022-10-15T02:15:49;6.53;;;5.23;;
11548;SDS011;61444;59.472;18.306;2022-10-15T02:18:03;7.03;;;5.47;;
11548;SDS011;61444;59.472;18.306;2022-10-15T02:20:13;6.97;;;5.30;;
11548;SDS011;61444;59.472;18.306;2022-10-15T02:22:23;6.77;;;4.97;;
11548;SDS011;61444;59.472;18.306;2022-10-15T02:24:33;9.80;;;5.43;;
11548;SDS011;61444;59.472;18.306;2022-10-15T02:26:44;9.17;;;5.53;;
11548;SDS011;61444;59.472;18.306;2022-10-15T02:28:55;6.90;;;5.30;;
11548;SDS011;61444;59.472;18.306;2022-10-15T02:31:05;7.70;;;5.27;;
11548;SDS011;61444;59.472;18.306;2022-10-15T02:33:16;8.10;;;5.40;;
11548;SDS011;61444;59.472;18.306;2022-10-15T02:35:26;7.97;;;5.07;;
11548;SDS011;61444;59.472;18.306;2022-10-15T02:37:35;7.47;;;5.03;;
11548;SDS011;61444;59.472;18.306;2022-10-15T02:39:46;9.60;;;5.43;;
11548;SDS011;61444;59.472;18.306;2022-10-15T02:41:55;9.37;;;5.13;;
11548;SDS011;61444;59.472;18.306;2022-10-15T02:44:06;9.03;;;5.33;;
11548;SDS011;61444;59.472;18.306;2022-10-15T02:46:15;6.63;;;4.87;;
11548;SDS011;61444;59.472;18.306;2022-10-15T02:48:26;10.67;;;5.07;;
11548;SDS011;61444;59.472;18.306;2022-10-15T02:50:35;10.63;;;4.93;;
11548;SDS011;61444;59.472;18.306;2022-10-15T02:52:44;5.60;;;4.60;;
11548;SDS011;61444;59.472;18.306;2022-10-15T02:54:53;7.00;;;5.07;;
11548;SDS011;61444;59.472;18.306;2022-10-15T02:57:02;8.80;;;4.63;;
11548;SDS011;61444;59.472;18.306;2022-10-15T02:59:11;7.13;;;4.70;;
11548;SDS011;61444;59.472;18.306;2022-10-15T03:01:22;7.07;;;4.87;;
11548;SDS011;61444;59.472;18.306;2022-10-15T03:03:32;7.87;;;5.37;;
11548;SDS011;61444;59.472;18.306;2022-10-15T03:05:41;6.73;;;4.57;;
11548;SDS011;61444;59.472;18.306;2022-10-15T03:07:52;5.90;;;4.63;;
11548;SDS011;61444;59.472;18.306;2022-10-15T03:10:01;8.03;;;4.70;;
11548;SDS011;61444;59.472;18.306;2022-10-15T03:12:09;5.83;;;4.43;;
11548;SDS011;61444;59.472;18.306;2022-10-15T03:14:18;5.27;;;4.30;;
11548;SDS011;61444;59.472;18.306;2022-10-15T03:16:27;10.57;;;5.13;;
11548;SDS011;61444;59.472;18.306;2022-10-15T03:18:40;6.73;;;5.00;;
11548;SDS011;61444;59.472;18.306;2022-10-15T03:20:52;10.50;;;5.07;;
11548;SDS011;61444;59.472;18.306;2022-10-15T03:23:00;7.53;;;5.07;;
11548;SDS011;61444;59.472;18.306;2022-10-15T03:25:10;8.30;;;4.90;;
11548;SDS011;61444;59.472;18.306;2022-10-15T03:27:19;8.27;;;5.00;;
11548;SDS011;61444;59.472;18.306;2022-10-15T03:29:28;8.00;;;4.70;;
11548;SDS011;61444;59.472;18.306;2022-10-15T03:31:37;8.73;;;5.03;;
11548;SDS011;61444;59.472;18.306;2022-10-15T03:33:48;9.60;;;4.60;;
11548;SDS011;61444;59.472;18.306;2022-10-15T03:35:57;9.67;;;4.93;;
11548;SDS011;61444;59.472;18.306;2022-10-15T03:38:06;8.50;;;5.27;;
11548;SDS011;61444;59.472;18.306;2022-10-15T03:40:15;8.73;;;4.73;;
11548;SDS011;61444;59.472;18.306;2022-10-15T03:42:24;8.77;;;5.17;;
11548;SDS011;61444;59.472;18.306;2022-10-15T03:44:33;10.20;;;4.80;;
11548;SDS011;61444;59.472;18.306;2022-10-15T03:46:45;7.83;;;5.07;;
11548;SDS011;61444;59.472;18.306;2022-10-15T03:48:58;6.80;;;4.90;;
11548;SDS011;61444;59.472;18.306;2022-10-15T03:51:06;9.03;;;5.00;;
11548;SDS011;61444;59.472;18.306;2022-10-15T03:53:17;6.50;;;5.20;;
11548;SDS011;61444;59.472;18.306;2022-10-15T03:55:25;10.27;;;4.50;;
11548;SDS011;61444;59.472;18.306;2022-10-15T03:57:34;7.37;;;4.73;;
11548;SDS011;61444;59.472;18.306;2022-10-15T03:59:43;6.40;;;4.87;;
11548;SDS011;61444;59.472;18.306;2022-10-15T04:01:52;7.50;;;5.13;;
11548;SDS011;61444;59.472;18.306;2022-10-15T04:04:03;7.80;;;5.00;;
11548;SDS011;61444;59.472;18.306;2022-10-15T04:06:11;7.30;;;4.60;;
11548;SDS011;61444;59.472;18.306;2022-10-15T04:08:21;8.03;;;4.50;;
11548;SDS011;61444;59.472;18.306;2022-10-15T04:10:29;5.63;;;4.37;;
11548;SDS011;61444;59.472;18.306;2022-10-15T04:12:38;6.87;;;4.40;;
11548;SDS011;61444;59.472;18.306;2022-10-15T04:14:47;8.37;;;4.80;;
11548;SDS011;61444;59.472;18.306;2022-10-15T04:16:56;6.10;;;4.27;;
11548;SDS011;61444;59.472;18.306;2022-10-15T04:19:07;5.97;;;4.33;;
11548;SDS011;61444;59.472;18.306;2022-10-15T04:21:16;8.03;;;4.87;;
11548;SDS011;61444;59.472;18.306;2022-10-15T04:23:26;10.60;;;4.40;;
11548;SDS011;61444;59.472;18.306;2022-10-15T04:25:35;10.30;;;5.20;;
11548;SDS011;61444;59.472;18.306;2022-10-15T04:27:44;6.27;;;4.40;;
11548;SDS011;61444;59.472;18.306;2022-10-15T04:29:53;6.70;;;4.77;;
11548;SDS011;61444;59.472;18.306;2022-10-15T04:32:02;8.90;;;5.00;;
11548;SDS011;61444;59.472;18.306;2022-10-15T04:34:13;7.23;;;4.90;;
11548;SDS011;61444;59.472;18.306;2022-10-15T04:36:21;8.33;;;5.20;;
11548;SDS011;61444;59.472;18.306;2022-10-15T04:38:30;10.33;;;5.03;;
11548;SDS011;61444;59.472;18.306;2022-10-15T04:40:40;9.77;;;5.00;;
11548;SDS011;61444;59.472;18.306;2022-10-15T04:42:48;7.10;;;4.77;;
11548;SDS011;61444;59.472;18.306;2022-10-15T04:44:57;8.97;;;5.33;;
11548;SDS011;61444;59.472;18.306;2022-10-15T04:47:06;9.30;;;5.30;;
11548;SDS011;61444;59.472;18.306;2022-10-15T04:49:17;10.20;;;5.80;;
11548;SDS011;61444;59.472;18.306;2022-10-15T04:51:26;10.13;;;5.70;;
11548;SDS011;61444;59.472;18.306;2022-10-15T04:53:35;7.53;;;5.43;;
11548;SDS011;61444;59.472;18.306;2022-10-15T04:55:43;9.53;;;5.70;;
11548;SDS011;61444;59.472;18.306;2022-10-15T04:57:52;10.03;;;5.90;;
11548;SDS011;61444;59.472;18.306;2022-10-15T05:00:01;10.73;;;6.20;;
11548;SDS011;61444;59.472;18.306;2022-10-15T05:02:13;9.47;;;6.07;;
11548;SDS011;61444;59.472;18.306;2022-10-15T05:04:24;11.47;;;6.90;;
11548;SDS011;61444;59.472;18.306;2022-10-15T05:06:33;17.77;;;6.93;;
11548;SDS011;61444;59.472;18.306;2022-10-15T05:08:42;9.63;;;6.70;;
11548;SDS011;61444;59.472;18.306;2022-10-15T05:10:52;10.70;;;6.70;;
11548;SDS011;61444;59.472;18.306;2022-10-15T05:13:00;14.23;;;7.80;;
11548;SDS011;61444;59.472;18.306;2022-10-15T05:15:09;12.43;;;7.70;;
11548;SDS011;61444;59.472;18.306;2022-10-15T05:17:18;14.63;;;7.80;;
11548;SDS011;61444;59.472;18.306;2022-10-15T05:19:29;15.97;;;8.67;;
11548;SDS011;61444;59.472;18.306;2022-10-15T05:21:38;16.40;;;8.50;;
11548;SDS011;61444;59.472;18.306;2022-10-15T05:23:48;17.17;;;8.87;;
11548;SDS011;61444;59.472;18.306;2022-10-15T05:25:58;19.27;;;10.07;;
11548;SDS011;61444;59.472;18.306;2022-10-15T05:28:07;21.30;;;10.83;;
11548;SDS011;61444;59.472;18.306;2022-10-15T05:30:16;23.00;;;11.73;;
11548;SDS011;61444;59.472;18.306;2022-10-15T05:32:24;22.00;;;11.80;;
11548;SDS011;61444;59.472;18.306;2022-10-15T05:34:35;21.83;;;11.77;;
11548;SDS011;61444;59.472;18.306;2022-10-15T05:36:44;26.77;;;12.73;;
11548;SDS011;61444;59.472;18.306;2022-10-15T05:38:53;22.80;;;12.20;;
11548;SDS011;61444;59.472;18.306;2022-10-15T05:41:02;23.17;;;13.07;;
11548;SDS011;61444;59.472;18.306;2022-10-15T05:43:11;27.67;;;14.07;;
11548;SDS011;61444;59.472;18.306;2022-10-15T05:45:20;28.77;;;14.93;;
11548;SDS011;61444;59.472;18.306;2022-10-15T05:47:29;30.07;;;15.00;;
11548;SDS011;61444;59.472;18.306;2022-10-15T05:49:40;26.07;;;14.80;;
11548;SDS011;61444;59.472;18.306;2022-10-15T05:51:48;25.63;;;15.77;;
11548;SDS011;61444;59.472;18.306;2022-10-15T05:53:58;25.37;;;14.87;;
11548;SDS011;61444;59.472;18.306;2022-10-15T05:56:07;25.07;;;14.73;;
11548;SDS011;61444;59.472;18.306;2022-10-15T05:58:15;23.20;;;14.30;;
11548;SDS011;61444;59.472;18.306;2022-10-15T06:00:24;29.60;;;14.90;;
11548;SDS011;61444;59.472;18.306;2022-10-15T06:02:33;27.97;;;15.07;;
11548;SDS011;61444;59.472;18.306;2022-10-15T06:04:44;30.33;;;15.07;;
11548;SDS011;61444;59.472;18.306;2022-10-15T06:06:54;29.90;;;15.03;;
11548;SDS011;61444;59.472;18.306;2022-10-15T06:09:03;23.73;;;14.27;;
11548;SDS011;61444;59.472;18.306;2022-10-15T06:11:12;23.80;;;14.63;;
11548;SDS011;61444;59.472;18.306;2022-10-15T06:13:22;26.20;;;15.17;;
11548;SDS011;61444;59.472;18.306;2022-10-15T06:15:37;27.87;;;15.73;;
11548;SDS011;61444;59.472;18.306;2022-10-15T06:17:50;23.93;;;14.07;;
11548;SDS011;61444;59.472;18.306;2022-10-15T06:20:02;24.23;;;14.53;;
11548;SDS011;61444;59.472;18.306;2022-10-15T06:22:11;22.10;;;14.70;;
11548;SDS011;61444;59.472;18.306;2022-10-15T06:24:20;25.60;;;14.90;;
11548;SDS011;61444;59.472;18.306;2022-10-15T06:26:30;26.07;;;15.43;;
11548;SDS011;61444;59.472;18.306;2022-10-15T06:28:38;23.57;;;14.40;;
11548;SDS011;61444;59.472;18.306;2022-10-15T06:30:47;30.03;;;16.67;;
11548;SDS011;61444;59.472;18.306;2022-10-15T06:32:56;25.23;;;15.13;;
11548;SDS011;61444;59.472;18.306;2022-10-15T06:35:07;26.53;;;14.70;;
11548;SDS011;61444;59.472;18.306;2022-10-15T06:37:16;25.27;;;14.73;;
11548;SDS011;61444;59.472;18.306;2022-10-15T06:39:26;28.63;;;15.23;;
11548;SDS011;61444;59.472;18.306;2022-10-15T06:41:35;30.27;;;14.87;;
11548;SDS011;61444;59.472;18.306;2022-10-15T06:43:44;28.43;;;15.63;;
11548;SDS011;61444;59.472;18.306;2022-10-15T06:45:53;29.93;;;16.47;;
11548;SDS011;61444;59.472;18.306;2022-10-15T06:48:02;25.70;;;15.97;;
11548;SDS011;61444;59.472;18.306;2022-10-15T06:50:13;25.77;;;15.23;;
11548;SDS011;61444;59.472;18.306;2022-10-15T06:52:22;26.60;;;15.97;;
11548;SDS011;61444;59.472;18.306;2022-10-15T06:54:31;31.10;;;16.63;;
11548;SDS011;61444;59.472;18.306;2022-10-15T06:56:40;30.37;;;17.00;;
11548;SDS011;61444;59.472;18.306;2022-10-15T06:58:49;30.80;;;16.23;;
11548;SDS011;61444;59.472;18.306;2022-10-15T07:00:58;24.53;;;15.90;;
11548;SDS011;61444;59.472;18.306;2022-10-15T07:03:07;26.43;;;16.57;;
11548;SDS011;61444;59.472;18.306;2022-10-15T07:05:19;26.30;;;16.07;;
11548;SDS011;61444;59.472;18.306;2022-10-15T07:07:28;26.07;;;16.77;;
11548;SDS011;61444;59.472;18.306;2022-10-15T07:09:37;25.23;;;14.63;;
11548;SDS011;61444;59.472;18.306;2022-10-15T07:11:46;25.00;;;15.30;;
11548;SDS011;61444;59.472;18.306;2022-10-15T07:13:55;26.70;;;14.47;;
11548;SDS011;61444;59.472;18.306;2022-10-15T07:16:04;20.73;;;12.63;;
11548;SDS011;61444;59.472;18.306;2022-10-15T07:18:13;24.97;;;12.97;;
11548;SDS011;61444;59.472;18.306;2022-10-15T07:20:24;23.00;;;14.23;;
11548;SDS011;61444;59.472;18.306;2022-10-15T07:22:33;26.30;;;14.53;;
11548;SDS011;61444;59.472;18.306;2022-10-15T07:24:42;23.27;;;15.47;;
11548;SDS011;61444;59.472;18.306;2022-10-15T07:26:51;28.50;;;15.07;;
11548;SDS011;61444;59.472;18.306;2022-10-15T07:29:00;29.87;;;15.73;;
11548;SDS011;61444;59.472;18.306;2022-10-15T07:31:09;29.03;;;17.00;;
11548;SDS011;61444;59.472;18.306;2022-10-15T07:33:18;29.30;;;17.00;;
11548;SDS011;61444;59.472;18.306;2022-10-15T07:35:29;33.23;;;19.70;;
11548;SDS011;61444;59.472;18.306;2022-10-15T07:37:37;39.70;;;19.57;;
11548;SDS011;61444;59.472;18.306;2022-10-15T07:39:47;30.83;;;19.00;;
11548;SDS011;61444;59.472;18.306;2022-10-15T07:41:55;33.67;;;19.40;;
11548;SDS011;61444;59.472;18.306;2022-10-15T07:44:04;32.97;;;19.80;;
11548;SDS011;61444;59.472;18.306;2022-10-15T07:46:13;35.53;;;20.47;;
11548;SDS011;61444;59.472;18.306;2022-10-15T07:48:22;38.67;;;20.83;;
11548;SDS011;61444;59.472;18.306;2022-10-15T07:50:33;35.83;;;20.57;;
11548;SDS011;61444;59.472;18.306;2022-10-15T07:52:46;37.27;;;21.80;;
11548;SDS011;61444;59.472;18.306;2022-10-15T07:54:55;36.23;;;20.37;;
11548;SDS011;61444;59.472;18.306;2022-10-15T07:57:04;37.63;;;21.20;;
11548;SDS011;61444;59.472;18.306;2022-10-15T07:59:13;38.27;;;20.77;;
11548;SDS011;61444;59.472;18.306;2022-10-15T08:01:23;37.60;;;21.37;;
11548;SDS011;61444;59.472;18.306;2022-10-15T08:03:31;37.00;;;21.73;;
11548;SDS011;61444;59.472;18.306;2022-10-15T08:05:42;37.83;;;20.80;;
11548;SDS011;61444;59.472;18.306;2022-10-15T08:07:51;33.63;;;20.13;;
11548;SDS011;61444;59.472;18.306;2022-10-15T08:10:00;32.40;;;20.80;;
11548;SDS011;61444;59.472;18.306;2022-10-15T08:12:11;32.47;;;20.40;;
11548;SDS011;61444;59.472;18.306;2022-10-15T08:14:19;36.07;;;20.07;;
11548;SDS011;61444;59.472;18.306;2022-10-15T08:16:28;30.50;;;19.67;;
11548;SDS011;61444;59.472;18.306;2022-10-15T08:18:37;27.53;;;20.00;;
11548;SDS011;61444;59.472;18.306;2022-10-15T08:20:48;29.57;;;18.73;;
11548;SDS011;61444;59.472;18.306;2022-10-15T08:22:58;30.80;;;19.70;;
11548;SDS011;61444;59.472;18.306;2022-10-15T08:25:08;26.47;;;16.67;;
11548;SDS011;61444;59.472;18.306;2022-10-15T08:27:17;31.97;;;18.50;;
11548;SDS011;61444;59.472;18.306;2022-10-15T08:29:26;32.10;;;18.60;;
11548;SDS011;61444;59.472;18.306;2022-10-15T08:31:35;25.77;;;17.83;;
11548;SDS011;61444;59.472;18.306;2022-10-15T08:33:44;28.13;;;17.67;;
11548;SDS011;61444;59.472;18.306;2022-10-15T08:35:55;25.80;;;16.07;;
11548;SDS011;61444;59.472;18.306;2022-10-15T08:38:04;26.27;;;17.77;;
11548;SDS011;61444;59.472;18.306;2022-10-15T08:40:13;26.60;;;19.55;;
11548;SDS011;61444;59.472;18.306;2022-10-15T08:42:25;24.80;;;17.37;;
11548;SDS011;61444;59.472;18.306;2022-10-15T08:44:37;24.47;;;16.37;;
11548;SDS011;61444;59.472;18.306;2022-10-15T08:46:47;24.00;;;16.83;;
11548;SDS011;61444;59.472;18.306;2022-10-15T08:48:57;24.73;;;16.03;;
11548;SDS011;61444;59.472;18.306;2022-10-15T08:51:10;23.53;;;16.40;;
11548;SDS011;61444;59.472;18.306;2022-10-15T08:53:20;25.70;;;16.27;;
11548;SDS011;61444;59.472;18.306;2022-10-15T08:55:32;23.17;;;15.30;;
11548;SDS011;61444;59.472;18.306;2022-10-15T08:57:44;23.67;;;15.23;;
11548;SDS011;61444;59.472;18.306;2022-10-15T08:59:54;26.33;;;16.53;;
11548;SDS011;61444;59.472;18.306;2022-10-15T09:02:09;24.83;;;16.53;;
11548;SDS011;61444;59.472;18.306;2022-10-15T09:04:24;24.73;;;16.83;;
11548;SDS011;61444;59.472;18.306;2022-10-15T09:06:36;25.50;;;15.33;;
11548;SDS011;61444;59.472;18.306;2022-10-15T09:08:48;26.83;;;17.47;;
11548;SDS011;61444;59.472;18.306;2022-10-15T09:10:59;23.73;;;16.37;;
11548;SDS011;61444;59.472;18.306;2022-10-15T09:13:10;27.10;;;17.53;;
11548;SDS011;61444;59.472;18.306;2022-10-15T09:15:21;25.00;;;17.97;;
11548;SDS011;61444;59.472;18.306;2022-10-15T09:17:33;24.93;;;16.63;;
11548;SDS011;61444;59.472;18.306;2022-10-15T09:19:42;25.40;;;16.43;;
11548;SDS011;61444;59.472;18.306;2022-10-15T09:21:53;24.80;;;16.70;;
11548;SDS011;61444;59.472;18.306;2022-10-15T09:24:03;28.10;;;17.03;;
11548;SDS011;61444;59.472;18.306;2022-10-15T09:26:16;23.80;;;17.40;;
11548;SDS011;61444;59.472;18.306;2022-10-15T09:28:28;26.67;;;17.00;;
11548;SDS011;61444;59.472;18.306;2022-10-15T09:30:44;24.90;;;16.77;;
11548;SDS011;61444;59.472;18.306;2022-10-15T09:32:54;27.77;;;17.60;;
11548;SDS011;61444;59.472;18.306;2022-10-15T09:35:09;25.33;;;16.50;;
11548;SDS011;61444;59.472;18.306;2022-10-15T09:37:24;24.70;;;17.33;;
11548;SDS011;61444;59.472;18.306;2022-10-15T09:39:40;23.67;;;16.47;;
11548;SDS011;61444;59.472;18.306;2022-10-15T09:41:51;24.73;;;16.97;;
11548;SDS011;61444;59.472;18.306;2022-10-15T09:44:04;23.83;;;16.50;;
11548;SDS011;61444;59.472;18.306;2022-10-15T09:46:17;24.53;;;16.17;;
11548;SDS011;61444;59.472;18.306;2022-10-15T09:48:26;24.83;;;16.33;;
11548;SDS011;61444;59.472;18.306;2022-10-15T09:50:38;23.23;;;17.27;;
11548;SDS011;61444;59.472;18.306;2022-10-15T09:52:58;21.97;;;14.83;;
11548;SDS011;61444;59.472;18.306;2022-10-15T09:55:09;25.03;;;15.50;;
11548;SDS011;61444;59.472;18.306;2022-10-15T09:57:25;17.83;;;14.23;;
11548;SDS011;61444;59.472;18.306;2022-10-15T09:59:34;21.87;;;14.60;;
11548;SDS011;61444;59.472;18.306;2022-10-15T10:01:56;19.67;;;14.10;;
11548;SDS011;61444;59.472;18.306;2022-10-15T10:04:09;20.57;;;15.00;;
11548;SDS011;61444;59.472;18.306;2022-10-15T10:06:19;21.10;;;14.17;;
11548;SDS011;61444;59.472;18.306;2022-10-15T10:08:32;17.93;;;13.87;;
11548;SDS011;61444;59.472;18.306;2022-10-15T10:10:42;18.90;;;13.80;;
11548;SDS011;61444;59.472;18.306;2022-10-15T10:12:52;20.03;;;14.00;;
11548;SDS011;61444;59.472;18.306;2022-10-15T10:15:03;18.50;;;13.93;;
11548;SDS011;61444;59.472;18.306;2022-10-15T10:17:13;19.07;;;13.83;;
11548;SDS011;61444;59.472;18.306;2022-10-15T10:19:23;20.23;;;13.30;;
11548;SDS011;61444;59.472;18.306;2022-10-15T10:21:32;18.63;;;13.27;;
11548;SDS011;61444;59.472;18.306;2022-10-15T10:23:44;21.23;;;14.40;;
11548;SDS011;61444;59.472;18.306;2022-10-15T10:25:54;16.13;;;12.97;;
11548;SDS011;61444;59.472;18.306;2022-10-15T10:28:05;21.00;;;14.30;;
11548;SDS011;61444;59.472;18.306;2022-10-15T10:30:22;21.07;;;13.67;;
11548;SDS011;61444;59.472;18.306;2022-10-15T10:32:33;17.53;;;13.47;;
11548;SDS011;61444;59.472;18.306;2022-10-15T10:34:43;20.23;;;13.77;;
11548;SDS011;61444;59.472;18.306;2022-10-15T10:36:58;21.27;;;14.10;;
11548;SDS011;61444;59.472;18.306;2022-10-15T10:39:14;21.97;;;14.00;;
11548;SDS011;61444;59.472;18.306;2022-10-15T10:41:25;21.37;;;13.70;;
11548;SDS011;61444;59.472;18.306;2022-10-15T10:43:55;20.70;;;14.73;;
11548;SDS011;61444;59.472;18.306;2022-10-15T10:46:05;20.27;;;13.77;;
11548;SDS011;61444;59.472;18.306;2022-10-15T10:48:19;21.23;;;14.50;;
11548;SDS011;61444;59.472;18.306;2022-10-15T10:50:29;21.27;;;14.27;;
11548;SDS011;61444;59.472;18.306;2022-10-15T10:52:39;22.33;;;16.03;;
11548;SDS011;61444;59.472;18.306;2022-10-15T10:54:50;22.17;;;15.53;;
11548;SDS011;61444;59.472;18.306;2022-10-15T10:57:01;23.13;;;15.57;;
11548;SDS011;61444;59.472;18.306;2022-10-15T10:59:14;23.93;;;16.47;;
11548;SDS011;61444;59.472;18.306;2022-10-15T11:01:23;22.37;;;14.97;;
11548;SDS011;61444;59.472;18.306;2022-10-15T11:03:36;21.37;;;15.43;;
11548;SDS011;61444;59.472;18.306;2022-10-15T11:05:45;24.87;;;16.70;;
11548;SDS011;61444;59.472;18.306;2022-10-15T11:07:57;23.97;;;17.23;;
11548;SDS011;61444;59.472;18.306;2022-10-15T11:10:09;26.93;;;17.57;;
11548;SDS011;61444;59.472;18.306;2022-10-15T11:14:51;28.87;;;17.57;;
11548;SDS011;61444;59.472;18.306;2022-10-15T11:17:03;23.23;;;17.53;;
11548;SDS011;61444;59.472;18.306;2022-10-15T11:19:19;27.90;;;18.43;;
11548;SDS011;61444;59.472;18.306;2022-10-15T11:22:03;29.07;;;18.67;;
11548;SDS011;61444;59.472;18.306;2022-10-15T11:24:14;26.83;;;18.60;;
11548;SDS011;61444;59.472;18.306;2022-10-15T11:26:28;29.97;;;20.30;;
11548;SDS011;61444;59.472;18.306;2022-10-15T11:29:08;31.77;;;20.63;;
11548;SDS011;61444;59.472;18.306;2022-10-15T11:31:22;30.67;;;19.60;;
11548;SDS011;61444;59.472;18.306;2022-10-15T11:33:38;34.70;;;22.07;;
11548;SDS011;61444;59.472;18.306;2022-10-15T11:35:53;25.77;;;19.50;;
11548;SDS011;61444;59.472;18.306;2022-10-15T11:38:11;29.00;;;20.50;;
11548;SDS011;61444;59.472;18.306;2022-10-15T11:40:23;30.77;;;18.80;;
11548;SDS011;61444;59.472;18.306;2022-10-15T11:42:39;30.20;;;19.37;;
11548;SDS011;61444;59.472;18.306;2022-10-15T11:44:55;23.47;;;19.00;;
11548;SDS011;61444;59.472;18.306;2022-10-15T11:47:12;27.60;;;19.63;;
11548;SDS011;61444;59.472;18.306;2022-10-15T11:49:28;27.73;;;19.07;;
11548;SDS011;61444;59.472;18.306;2022-10-15T11:51:40;26.40;;;19.20;;
11548;SDS011;61444;59.472;18.306;2022-10-15T11:53:59;32.40;;;19.87;;
11548;SDS011;61444;59.472;18.306;2022-10-15T11:56:11;30.90;;;19.70;;
11548;SDS011;61444;59.472;18.306;2022-10-15T11:58:23;27.13;;;19.43;;
11548;SDS011;61444;59.472;18.306;2022-10-15T12:00:36;31.13;;;19.80;;
11548;SDS011;61444;59.472;18.306;2022-10-15T12:02:49;30.80;;;20.07;;
11548;SDS011;61444;59.472;18.306;2022-10-15T12:04:59;26.53;;;19.53;;
11548;SDS011;61444;59.472;18.306;2022-10-15T12:07:11;33.93;;;20.77;;
11548;SDS011;61444;59.472;18.306;2022-10-15T12:09:23;28.27;;;20.07;;
11548;SDS011;61444;59.472;18.306;2022-10-15T12:11:37;30.40;;;20.33;;
11548;SDS011;61444;59.472;18.306;2022-10-15T12:13:49;32.87;;;21.67;;
11548;SDS011;61444;59.472;18.306;2022-10-15T12:16:05;30.80;;;21.17;;
11548;SDS011;61444;59.472;18.306;2022-10-15T12:18:19;25.50;;;18.90;;
11548;SDS011;61444;59.472;18.306;2022-10-15T12:20:30;29.83;;;20.07;;
11548;SDS011;61444;59.472;18.306;2022-10-15T12:22:43;30.33;;;20.90;;
11548;SDS011;61444;59.472;18.306;2022-10-15T12:25:00;34.57;;;20.87;;
11548;SDS011;61444;59.472;18.306;2022-10-15T12:27:14;33.80;;;21.90;;
11548;SDS011;61444;59.472;18.306;2022-10-15T12:29:24;27.70;;;19.00;;
11548;SDS011;61444;59.472;18.306;2022-10-15T12:31:44;30.17;;;21.10;;
11548;SDS011;61444;59.472;18.306;2022-10-15T12:33:55;31.33;;;21.47;;
11548;SDS011;61444;59.472;18.306;2022-10-15T12:36:05;32.97;;;20.87;;
11548;SDS011;61444;59.472;18.306;2022-10-15T12:38:20;30.63;;;20.10;;
11548;SDS011;61444;59.472;18.306;2022-10-15T12:40:33;31.20;;;19.93;;
11548;SDS011;61444;59.472;18.306;2022-10-15T12:42:42;31.03;;;21.17;;
11548;SDS011;61444;59.472;18.306;2022-10-15T12:44:52;31.03;;;21.37;;
11548;SDS011;61444;59.472;18.306;2022-10-15T12:47:01;32.87;;;20.97;;